Time;durP1;ratioP1;P1;durP2;ratioP2;P2;SDS_P1;SDS_P2;PMS_P1;PMS_P2;Temp;Humidity;BMP_temperature;BMP_pressure;BME280_temperature;BME280_humidity;BME280_pressure;Samples;Min_cycle;Max_cycle;Signal;HPM_P1;HPM_P2
2023/07/31 00:01:57;;;;;;;3.70;2.20;;;18.10;99.90;;;;;;4160339;28;20424;-62
2023/07/31 00:03:58;;;;;;;3.58;2.30;;;18.10;99.90;;;;;;4161486;28;20034;-63
2023/07/31 00:06:00;;;;;;;5.40;2.95;;;18.10;99.90;;;;;;4160207;28;20481;-62
2023/07/31 00:08:01;;;;;;;3.08;2.60;;;18.10;99.90;;;;;;4160498;28;20064;-62
2023/07/31 00:10:02;;;;;;;5.63;2.60;;;18.10;99.90;;;;;;4160379;28;20068;-61
2023/07/31 00:12:04;;;;;;;4.53;2.72;;;18.10;99.90;;;;;;4161416;28;20083;-66
2023/07/31 00:14:05;;;;;;;2.83;2.63;;;18.20;99.90;;;;;;4160481;28;20038;-62
2023/07/31 00:16:06;;;;;;;3.17;2.88;;;18.20;99.90;;;;;;4160222;28;20065;-63
2023/07/31 00:18:07;;;;;;;3.22;2.78;;;18.20;99.90;;;;;;4159749;28;20079;-61
2023/07/31 00:20:09;;;;;;;3.38;2.63;;;18.10;99.90;;;;;;4160961;28;20071;-63
2023/07/31 00:22:10;;;;;;;2.45;2.10;;;18.10;99.90;;;;;;4160144;28;20025;-62
2023/07/31 00:24:11;;;;;;;2.50;2.28;;;18.10;99.90;;;;;;4160467;28;20038;-62
2023/07/31 00:26:12;;;;;;;2.75;2.55;;;18.10;99.90;;;;;;4160320;28;20034;-61
2023/07/31 00:28:13;;;;;;;4.60;2.08;;;18.10;99.90;;;;;;4160322;28;20037;-68
2023/07/31 00:30:14;;;;;;;4.70;2.03;;;18.10;99.90;;;;;;4160891;28;20087;-62
2023/07/31 00:32:15;;;;;;;3.10;2.35;;;18.00;99.90;;;;;;4159688;28;20029;-62
2023/07/31 00:34:16;;;;;;;23.27;2.30;;;18.10;99.90;;;;;;4160899;28;20454;-62
2023/07/31 00:36:18;;;;;;;2.50;2.30;;;18.10;99.90;;;;;;4159786;28;20038;-62
2023/07/31 00:38:19;;;;;;;5.65;2.28;;;18.10;99.90;;;;;;4161029;28;20130;-64
2023/07/31 00:40:20;;;;;;;1.80;1.63;;;18.10;99.90;;;;;;4159847;28;20474;-61
2023/07/31 00:42:21;;;;;;;4.28;2.17;;;18.10;99.90;;;;;;4161451;28;20049;-62
2023/07/31 00:44:22;;;;;;;2.05;1.85;;;18.10;99.90;;;;;;4160175;28;20581;-63
2023/07/31 00:46:23;;;;;;;2.92;1.60;;;18.10;99.90;;;;;;4161269;28;20041;-63
2023/07/31 00:48:25;;;;;;;3.83;2.20;;;18.00;99.90;;;;;;4159913;28;20048;-62
2023/07/31 00:50:27;;;;;;;3.45;2.00;;;18.00;99.90;;;;;;4160869;28;20041;-61
2023/07/31 00:52:29;;;;;;;4.25;1.75;;;18.00;99.90;;;;;;4160127;28;20038;-62
2023/07/31 00:54:30;;;;;;;3.75;2.10;;;18.00;99.90;;;;;;4160334;28;20108;-69
2023/07/31 00:56:32;;;;;;;5.65;2.63;;;18.00;99.90;;;;;;4160047;28;20045;-62
2023/07/31 00:58:33;;;;;;;3.40;1.92;;;18.00;99.90;;;;;;4159917;28;20105;-62
2023/07/31 01:00:34;;;;;;;5.47;2.20;;;18.00;99.90;;;;;;4160271;28;20076;-64
2023/07/31 01:02:36;;;;;;;2.60;2.40;;;18.00;99.90;;;;;;4159885;28;20736;-68
2023/07/31 01:04:37;;;;;;;4.43;1.88;;;18.00;99.90;;;;;;4160660;28;20085;-61
2023/07/31 01:06:45;;;;;;;3.72;2.13;;;18.00;99.90;;;;;;4159927;28;20041;-64
2023/07/31 01:09:11;;;;;;;2.30;1.88;;;18.00;99.90;;;;;;4161215;28;20076;-63
2023/07/31 01:11:26;;;;;;;2.95;1.83;;;18.00;99.90;;;;;;4159205;28;20037;-61
2023/07/31 01:13:28;;;;;;;3.28;1.80;;;18.00;99.90;;;;;;4159720;28;20041;-67
2023/07/31 01:15:29;;;;;;;6.82;2.08;;;17.90;99.90;;;;;;4161305;28;20053;-71
2023/07/31 01:17:30;;;;;;;8.05;2.42;;;17.90;99.90;;;;;;4164032;28;20400;-65
2023/07/31 01:19:32;;;;;;;3.95;2.00;;;17.90;99.90;;;;;;4162662;28;20049;-62
2023/07/31 01:21:36;;;;;;;3.28;2.05;;;17.90;99.90;;;;;;4163764;28;20124;-68
2023/07/31 01:24:01;;;;;;;4.68;2.13;;;17.80;99.90;;;;;;4162490;28;20033;-68
2023/07/31 01:26:31;;;;;;;2.20;1.90;;;17.80;99.90;;;;;;4163846;28;20045;-65
2023/07/31 01:28:52;;;;;;;3.85;2.10;;;17.80;99.90;;;;;;4162385;28;20393;-61
2023/07/31 01:30:58;;;;;;;3.15;1.90;;;17.80;99.90;;;;;;4163050;28;20045;-62
2023/07/31 01:33:01;;;;;;;1.92;1.83;;;17.80;99.90;;;;;;4162783;28;20038;-67
2023/07/31 01:35:03;;;;;;;3.97;1.88;;;17.80;99.90;;;;;;4162105;28;20046;-65
2023/07/31 01:37:04;;;;;;;2.25;1.90;;;17.80;99.90;;;;;;4162484;28;20473;-62
2023/07/31 01:39:06;;;;;;;2.83;2.10;;;17.80;99.90;;;;;;4163459;28;20026;-67
2023/07/31 01:41:07;;;;;;;3.75;1.80;;;17.80;99.90;;;;;;4162787;28;20428;-63
2023/07/31 01:43:08;;;;;;;4.00;1.80;;;17.80;99.90;;;;;;4163465;28;20060;-66
2023/07/31 01:45:09;;;;;;;3.25;1.92;;;17.70;99.90;;;;;;4162326;28;20480;-65
2023/07/31 01:47:11;;;;;;;2.40;2.20;;;17.80;99.90;;;;;;4163390;28;20551;-68
2023/07/31 01:49:12;;;;;;;2.25;1.95;;;17.80;99.90;;;;;;4162162;28;20105;-61
2023/07/31 01:51:13;;;;;;;2.95;2.08;;;17.80;99.90;;;;;;4163533;28;20029;-62
2023/07/31 01:53:15;;;;;;;8.77;2.50;;;17.80;99.90;;;;;;4162264;28;20091;-62
2023/07/31 01:55:16;;;;;;;3.10;2.30;;;17.70;99.90;;;;;;4162813;28;20049;-61
2023/07/31 01:57:17;;;;;;;5.13;2.38;;;17.70;99.90;;;;;;4162700;28;20038;-67
2023/07/31 01:59:18;;;;;;;4.07;3.67;;;17.70;99.90;;;;;;4162509;28;20508;-64
2023/07/31 02:01:19;;;;;;;3.25;2.85;;;17.70;99.90;;;;;;4162381;28;20072;-67
2023/07/31 02:03:21;;;;;;;6.10;2.95;;;17.70;99.90;;;;;;4162597;28;20394;-61
2023/07/31 02:05:22;;;;;;;3.92;2.22;;;17.70;99.90;;;;;;4162834;28;20071;-63
2023/07/31 02:07:23;;;;;;;2.20;1.83;;;17.70;99.90;;;;;;4161981;28;20049;-62
2023/07/31 02:09:24;;;;;;;3.58;1.70;;;17.70;99.90;;;;;;4163051;28;20535;-66
2023/07/31 02:11:25;;;;;;;2.20;1.80;;;17.70;99.90;;;;;;4162271;28;20025;-65
2023/07/31 02:13:26;;;;;;;4.57;2.03;;;17.70;99.90;;;;;;4162980;28;20037;-63
2023/07/31 02:15:27;;;;;;;6.22;2.13;;;17.80;99.90;;;;;;4161201;28;20065;-61
2023/07/31 02:17:29;;;;;;;3.47;1.70;;;17.80;99.90;;;;;;4162579;28;20068;-61
2023/07/31 02:19:30;;;;;;;1.58;1.48;;;17.80;99.90;;;;;;4161631;28;20038;-62
2023/07/31 02:21:31;;;;;;;3.58;1.70;;;17.90;99.90;;;;;;4163026;28;20041;-61
2023/07/31 02:23:32;;;;;;;1.88;1.50;;;18.00;99.90;;;;;;4161676;28;20088;-62
2023/07/31 02:25:34;;;;;;;1.40;1.30;;;18.00;99.90;;;;;;4162590;28;20076;-64
2023/07/31 02:27:35;;;;;;;2.60;1.40;;;18.00;99.90;;;;;;4160755;28;20060;-66
2023/07/31 02:29:36;;;;;;;3.00;1.77;;;18.00;99.90;;;;;;4162497;28;20092;-62
2023/07/31 02:31:37;;;;;;;1.13;1.10;;;18.10;99.90;;;;;;4162486;28;20107;-68
2023/07/31 02:33:38;;;;;;;2.70;1.27;;;18.10;99.90;;;;;;4160919;28;20041;-62
2023/07/31 02:35:39;;;;;;;2.15;1.23;;;18.10;99.90;;;;;;4162324;28;20034;-66
2023/07/31 02:37:44;;;;;;;3.28;1.60;;;18.20;99.90;;;;;;4160233;28;20045;-61
2023/07/31 02:39:45;;;;;;;3.95;3.08;;;18.20;99.90;;;;;;4162836;28;20076;-62
2023/07/31 02:41:47;;;;;;;5.97;2.95;;;18.20;99.90;;;;;;4161875;28;20034;-64
2023/07/31 02:43:48;;;;;;;2.72;2.28;;;18.20;99.90;;;;;;4162938;28;20105;-63
2023/07/31 02:45:53;;;;;;;1.60;1.50;;;18.20;99.90;;;;;;4160421;28;20049;-61
2023/07/31 02:47:54;;;;;;;6.07;2.38;;;18.20;99.90;;;;;;4162652;28;20076;-68
2023/07/31 02:49:55;;;;;;;5.88;1.20;;;18.20;99.90;;;;;;4161468;28;20060;-62
2023/07/31 02:51:57;;;;;;;3.80;1.55;;;18.20;99.90;;;;;;4162367;28;20091;-62
2023/07/31 02:53:58;;;;;;;1.95;1.13;;;18.20;99.90;;;;;;4161304;28;20037;-62
2023/07/31 02:56:00;;;;;;;5.80;1.60;;;18.10;99.90;;;;;;4161812;28;20107;-62
2023/07/31 02:58:01;;;;;;;3.83;1.60;;;18.10;99.90;;;;;;4161404;28;20034;-65
2023/07/31 03:00:05;;;;;;;2.25;1.38;;;18.10;99.90;;;;;;4161710;28;20029;-61
2023/07/31 03:02:07;;;;;;;3.00;1.25;;;18.10;99.90;;;;;;4161668;28;20441;-63
2023/07/31 03:04:08;;;;;;;1.60;1.50;;;18.10;99.90;;;;;;4161466;28;20060;-64
2023/07/31 03:06:09;;;;;;;3.28;1.40;;;18.10;99.90;;;;;;4161808;28;20557;-61
2023/07/31 03:08:10;;;;;;;2.72;1.40;;;18.10;99.90;;;;;;4161458;28;20021;-62
2023/07/31 03:10:11;;;;;;;3.33;1.30;;;18.10;99.90;;;;;;4162046;28;20115;-62
2023/07/31 03:12:13;;;;;;;2.45;1.33;;;18.00;99.90;;;;;;4161206;28;20022;-62
2023/07/31 03:14:14;;;;;;;3.45;1.13;;;18.00;99.90;;;;;;4162337;28;20092;-62
2023/07/31 03:16:15;;;;;;;1.05;1.00;;;18.00;99.90;;;;;;4160914;28;20041;-62
2023/07/31 03:18:16;;;;;;;3.13;1.10;;;18.00;99.90;;;;;;4160184;28;20045;-61
2023/07/31 03:20:17;;;;;;;1.83;1.40;;;18.00;99.90;;;;;;4160506;28;20036;-61
2023/07/31 03:22:19;;;;;;;3.72;1.73;;;18.00;99.90;;;;;;4161801;28;20088;-66
2023/07/31 03:24:20;;;;;;;5.25;1.80;;;18.00;99.90;;;;;;4160846;28;20075;-61
2023/07/31 03:26:21;;;;;;;5.15;1.27;;;18.00;99.90;;;;;;4161887;28;20041;-62
2023/07/31 03:28:22;;;;;;;2.08;1.27;;;17.90;99.90;;;;;;4160809;28;20384;-64
2023/07/31 03:30:23;;;;;;;2.05;1.10;;;17.90;99.90;;;;;;4161250;28;20106;-66
2023/07/31 03:32:24;;;;;;;1.73;1.30;;;18.00;99.90;;;;;;4160896;28;20119;-64
2023/07/31 03:34:25;;;;;;;2.00;1.27;;;17.90;99.90;;;;;;4160248;28;20033;-61
2023/07/31 03:36:26;;;;;;;2.80;1.45;;;17.90;99.90;;;;;;4160669;28;20057;-61
2023/07/31 03:38:28;;;;;;;1.45;1.20;;;17.90;99.90;;;;;;4159066;28;20045;-62
2023/07/31 03:40:29;;;;;;;4.78;1.27;;;17.90;99.90;;;;;;4161217;28;20075;-62
2023/07/31 03:42:30;;;;;;;6.03;1.30;;;17.90;99.90;;;;;;4160900;28;20029;-62
2023/07/31 03:44:31;;;;;;;4.57;1.90;;;17.80;99.90;;;;;;4161060;28;20017;-61
2023/07/31 03:46:33;;;;;;;6.38;1.65;;;17.80;99.90;;;;;;4160254;28;20572;-60
2023/07/31 03:48:34;;;;;;;2.17;1.55;;;17.80;99.90;;;;;;4161687;28;20045;-61
2023/07/31 03:50:35;;;;;;;2.55;1.92;;;17.90;99.90;;;;;;4160547;28;20041;-60
2023/07/31 03:52:36;;;;;;;2.75;1.27;;;17.80;99.90;;;;;;4161482;28;20535;-61
2023/07/31 03:54:37;;;;;;;2.28;1.35;;;17.90;99.90;;;;;;4158312;28;20102;-62
2023/07/31 03:56:39;;;;;;;5.00;1.35;;;17.90;99.90;;;;;;4160878;28;20119;-61
2023/07/31 03:58:40;;;;;;;4.28;1.40;;;17.90;99.90;;;;;;4160162;28;20029;-68
2023/07/31 04:00:41;;;;;;;1.85;1.40;;;17.90;99.90;;;;;;4158833;28;20456;-67
2023/07/31 04:02:42;;;;;;;5.97;1.35;;;17.90;99.90;;;;;;4144037;28;20034;-61
2023/07/31 04:04:43;;;;;;;1.95;1.27;;;17.90;99.90;;;;;;4144522;28;21369;-67
2023/07/31 04:06:44;;;;;;;2.15;1.30;;;17.90;99.90;;;;;;4155596;28;20050;-65
2023/07/31 04:08:46;;;;;;;2.05;1.17;;;17.90;99.90;;;;;;4159788;28;20178;-64
2023/07/31 04:10:47;;;;;;;4.53;1.70;;;17.90;99.90;;;;;;4161283;28;20087;-65
2023/07/31 04:12:48;;;;;;;3.33;1.50;;;17.90;99.90;;;;;;4158599;28;20484;-62
2023/07/31 04:14:50;;;;;;;5.95;2.47;;;17.90;99.90;;;;;;4158204;28;20092;-62
2023/07/31 04:16:52;;;;;;;3.13;1.40;;;17.90;99.90;;;;;;4158243;28;20143;-72
2023/07/31 04:18:53;;;;;;;4.28;1.70;;;17.90;99.90;;;;;;4161307;28;20053;-62
2023/07/31 04:20:54;;;;;;;2.45;1.70;;;17.90;99.90;;;;;;4159918;28;20450;-70
2023/07/31 04:22:55;;;;;;;5.18;1.63;;;17.90;99.90;;;;;;4160037;28;20045;-61
2023/07/31 04:24:56;;;;;;;3.80;1.67;;;17.90;99.90;;;;;;4155154;28;20099;-73
2023/07/31 04:26:57;;;;;;;5.95;1.48;;;17.90;99.90;;;;;;4160730;28;20026;-62
2023/07/31 04:28:58;;;;;;;3.75;1.63;;;17.80;99.90;;;;;;4159699;28;20429;-68
2023/07/31 04:31:00;;;;;;;3.10;1.80;;;17.90;99.90;;;;;;4160973;28;20037;-70
2023/07/31 04:33:01;;;;;;;4.75;1.58;;;17.90;99.90;;;;;;4160401;28;20103;-61
2023/07/31 04:35:03;;;;;;;4.57;1.40;;;17.90;99.90;;;;;;4160498;28;20099;-65
2023/07/31 04:37:04;;;;;;;1.45;1.23;;;18.00;99.90;;;;;;4143707;28;20069;-71
2023/07/31 04:39:05;;;;;;;3.60;1.30;;;18.00;99.90;;;;;;4147669;28;20037;-70
2023/07/31 04:41:07;;;;;;;5.80;1.63;;;18.00;99.90;;;;;;4160843;28;20029;-71
2023/07/31 04:43:08;;;;;;;3.83;1.40;;;18.00;99.90;;;;;;4159984;28;20039;-61
2023/07/31 04:45:09;;;;;;;2.35;1.42;;;18.00;99.90;;;;;;4160840;28;20080;-62
2023/07/31 04:47:10;;;;;;;2.38;1.33;;;18.00;99.90;;;;;;4159568;28;20025;-64
2023/07/31 04:49:12;;;;;;;3.40;1.65;;;18.00;99.90;;;;;;4160839;28;20334;-61
2023/07/31 04:51:13;;;;;;;2.28;1.48;;;18.00;99.90;;;;;;4160900;28;20099;-65
2023/07/31 04:53:14;;;;;;;4.60;1.63;;;18.10;99.90;;;;;;4164070;28;20079;-74
2023/07/31 04:55:15;;;;;;;3.90;1.42;;;18.10;99.90;;;;;;4162933;28;20095;-71
2023/07/31 04:57:16;;;;;;;4.10;1.60;;;18.20;99.90;;;;;;4163943;28;20049;-70
2023/07/31 04:59:19;;;;;;;3.63;1.50;;;18.30;99.90;;;;;;4163213;28;20033;-70
2023/07/31 05:01:20;;;;;;;5.68;2.22;;;18.30;99.90;;;;;;4163920;28;20060;-68
2023/07/31 05:03:21;;;;;;;3.42;1.58;;;18.40;99.90;;;;;;4163190;28;20343;-61
2023/07/31 05:05:23;;;;;;;1.65;1.08;;;18.50;99.90;;;;;;4162037;28;20037;-61
2023/07/31 05:07:24;;;;;;;3.97;1.40;;;18.60;99.90;;;;;;4163138;28;20029;-70
2023/07/31 05:09:25;;;;;;;3.92;1.55;;;18.70;99.90;;;;;;4163172;28;20179;-61
2023/07/31 05:11:26;;;;;;;8.68;1.55;;;18.80;99.90;;;;;;4164032;28;20045;-71
2023/07/31 05:13:27;;;;;;;5.00;1.60;;;18.90;99.90;;;;;;4162601;28;20049;-66
2023/07/31 05:15:29;;;;;;;2.53;1.65;;;19.00;99.90;;;;;;4163727;28;20033;-60
2023/07/31 05:17:30;;;;;;;4.35;1.48;;;19.10;99.90;;;;;;4162421;28;20099;-60
2023/07/31 05:19:31;;;;;;;1.73;1.13;;;19.20;99.90;;;;;;4164027;28;20038;-61
2023/07/31 05:21:32;;;;;;;1.60;1.35;;;19.30;99.90;;;;;;4162705;28;20045;-61
2023/07/31 05:23:33;;;;;;;4.47;1.70;;;19.40;99.90;;;;;;4163532;28;20442;-61
2023/07/31 05:25:34;;;;;;;3.15;1.20;;;19.80;99.90;;;;;;4162468;28;20584;-71
2023/07/31 05:27:35;;;;;;;1.35;1.10;;;20.50;99.90;;;;;;4163595;28;20088;-70
2023/07/31 05:29:37;;;;;;;3.85;1.08;;;21.50;99.90;;;;;;4162329;28;20068;-72
2023/07/31 05:31:38;;;;;;;1.60;1.20;;;22.60;99.90;;;;;;4163319;28;20457;-72
2023/07/31 05:33:39;;;;;;;2.83;1.27;;;23.90;99.90;;;;;;4162590;28;20075;-62
2023/07/31 05:35:40;;;;;;;2.58;1.50;;;25.00;99.90;;;;;;4163026;28;20083;-63
2023/07/31 05:37:41;;;;;;;1.75;0.98;;;25.80;99.90;;;;;;4162695;28;20324;-69
2023/07/31 05:39:42;;;;;;;3.50;1.33;;;26.50;99.90;;;;;;4162788;28;20047;-61
2023/07/31 05:41:44;;;;;;;4.50;1.30;;;26.30;99.90;;;;;;4163554;28;20335;-69
2023/07/31 05:43:45;;;;;;;3.53;0.80;;;25.50;99.90;;;;;;4162589;28;20099;-61
2023/07/31 05:45:46;;;;;;;1.67;0.90;;;25.00;99.90;;;;;;4163585;28;20037;-71
2023/07/31 05:47:48;;;;;;;2.58;0.80;;;24.50;99.90;;;;;;4162152;28;20021;-64
2023/07/31 05:49:52;;;;;;;1.05;0.80;;;24.30;99.90;;;;;;4163585;28;20115;-72
2023/07/31 05:51:53;;;;;;;1.42;0.80;;;24.20;99.90;;;;;;4162278;28;20383;-62
2023/07/31 05:53:55;;;;;;;2.75;0.80;;;24.30;99.90;;;;;;4163379;28;20128;-63
2023/07/31 05:55:56;;;;;;;2.83;2.42;;;24.20;99.90;;;;;;4161762;28;20049;-71
2023/07/31 05:57:57;;;;;;;2.00;1.10;;;24.10;99.90;;;;;;4163304;28;20033;-62
2023/07/31 05:59:58;;;;;;;1.27;0.73;;;23.60;99.90;;;;;;4162017;28;20022;-71
2023/07/31 06:01:59;;;;;;;1.90;1.30;;;23.40;99.90;;;;;;4162969;28;20466;-62
2023/07/31 06:04:01;;;;;;;1.65;1.30;;;23.30;99.90;;;;;;4162043;28;20075;-61
2023/07/31 06:06:02;;;;;;;2.33;1.02;;;23.20;99.90;;;;;;4162860;28;20045;-61
2023/07/31 06:08:04;;;;;;;9.45;1.23;;;23.00;99.90;;;;;;4162521;28;20038;-68
2023/07/31 06:10:05;;;;;;;4.22;2.20;;;22.90;99.90;;;;;;4162177;28;20056;-62
2023/07/31 06:12:07;;;;;;;4.68;2.63;;;22.90;99.90;;;;;;4162807;28;20060;-70
2023/07/31 06:14:08;;;;;;;5.55;2.42;;;22.80;99.90;;;;;;4161646;28;20103;-69
2023/07/31 06:16:09;;;;;;;2.70;1.10;;;22.60;99.90;;;;;;4162683;28;20469;-72
2023/07/31 06:18:10;;;;;;;2.55;1.13;;;22.40;99.90;;;;;;4161761;28;20037;-64
2023/07/31 06:20:11;;;;;;;3.03;0.88;;;22.30;99.90;;;;;;4163002;28;20095;-61
2023/07/31 06:22:12;;;;;;;4.10;1.15;;;22.10;99.90;;;;;;4161414;28;20029;-63
2023/07/31 06:24:18;;;;;;;3.83;0.85;;;21.90;99.90;;;;;;4162828;28;20191;-70
2023/07/31 06:26:20;;;;;;;4.22;1.10;;;21.90;99.90;;;;;;4161809;28;20470;-71
2023/07/31 06:28:21;;;;;;;3.15;1.17;;;21.90;99.90;;;;;;4163067;28;20055;-63
2023/07/31 06:30:22;;;;;;;4.10;1.33;;;22.00;99.90;;;;;;4161460;28;20029;-63
2023/07/31 06:32:23;;;;;;;2.30;1.08;;;22.10;99.90;;;;;;4162864;28;20118;-62
2023/07/31 06:34:24;;;;;;;4.30;1.30;;;22.00;99.90;;;;;;4161543;28;20469;-69
2023/07/31 06:36:25;;;;;;;7.07;1.52;;;22.00;99.90;;;;;;4162252;28;20033;-61
2023/07/31 06:38:27;;;;;;;1.63;0.82;;;22.00;99.90;;;;;;4161930;28;20080;-68
2023/07/31 06:40:29;;;;;;;2.47;1.00;;;22.10;99.90;;;;;;4161722;28;20079;-63
2023/07/31 06:42:30;;;;;;;2.58;0.95;;;22.10;99.90;;;;;;4162356;28;20033;-66
2023/07/31 06:44:31;;;;;;;3.55;1.33;;;22.20;99.90;;;;;;4161683;28;20068;-66
2023/07/31 06:46:32;;;;;;;2.85;1.00;;;22.20;99.90;;;;;;4162400;28;20026;-62
2023/07/31 06:48:34;;;;;;;4.78;1.20;;;22.20;99.90;;;;;;4161159;28;20022;-61
2023/07/31 06:50:35;;;;;;;2.65;1.00;;;22.10;99.90;;;;;;4162560;28;20033;-62
2023/07/31 06:52:36;;;;;;;2.83;1.13;;;22.00;99.90;;;;;;4161090;28;20029;-65
2023/07/31 06:54:37;;;;;;;4.15;1.20;;;22.00;99.90;;;;;;4162351;28;20030;-62
2023/07/31 06:56:38;;;;;;;1.55;1.30;;;22.00;99.90;;;;;;4160662;28;20045;-63
2023/07/31 06:58:40;;;;;;;2.45;1.20;;;21.90;99.90;;;;;;4162258;28;20091;-69
2023/07/31 07:00:41;;;;;;;5.93;1.45;;;21.80;99.90;;;;;;4161085;28;20421;-62
2023/07/31 07:02:42;;;;;;;5.55;1.52;;;21.70;99.90;;;;;;4162109;28;20049;-61
2023/07/31 07:04:43;;;;;;;1.65;1.25;;;21.60;99.90;;;;;;4160919;28;20021;-62
2023/07/31 07:06:44;;;;;;;1.42;1.33;;;21.60;99.90;;;;;;4161694;28;20397;-62
2023/07/31 07:08:45;;;;;;;3.58;1.23;;;21.60;99.90;;;;;;4160045;28;20095;-61
2023/07/31 07:10:47;;;;;;;1.73;1.23;;;21.60;99.90;;;;;;4161607;28;20041;-63
2023/07/31 07:12:48;;;;;;;2.40;1.42;;;21.60;99.90;;;;;;4161588;28;20156;-71
2023/07/31 07:14:49;;;;;;;3.00;1.40;;;21.80;99.90;;;;;;4161300;28;20048;-70
2023/07/31 07:16:51;;;;;;;3.33;1.35;;;21.90;99.90;;;;;;4161702;28;20041;-62
2023/07/31 07:18:52;;;;;;;1.60;1.25;;;22.00;99.90;;;;;;4160699;28;20029;-61
2023/07/31 07:20:54;;;;;;;5.28;1.20;;;22.10;99.90;;;;;;4161676;28;20474;-62
2023/07/31 07:22:55;;;;;;;2.50;1.60;;;22.20;99.90;;;;;;4160622;28;20404;-69
2023/07/31 07:24:56;;;;;;;3.83;1.50;;;22.10;99.90;;;;;;4161567;28;20030;-62
2023/07/31 07:26:58;;;;;;;3.53;1.10;;;22.00;99.90;;;;;;4160612;28;20075;-63
2023/07/31 07:29:01;;;;;;;2.63;1.27;;;21.90;99.90;;;;;;4161896;28;20243;-70
2023/07/31 07:31:03;;;;;;;5.32;1.45;;;21.80;99.90;;;;;;4160890;28;20045;-70
2023/07/31 07:33:04;;;;;;;2.45;1.35;;;21.90;99.90;;;;;;4161918;28;20041;-61
2023/07/31 07:35:06;;;;;;;3.63;1.30;;;22.00;99.90;;;;;;4160631;28;20041;-62
2023/07/31 07:37:07;;;;;;;4.00;1.00;;;22.10;99.90;;;;;;4161769;28;20823;-61
2023/07/31 07:39:11;;;;;;;2.75;1.10;;;22.20;99.90;;;;;;4161016;28;20041;-63
2023/07/31 07:41:12;;;;;;;3.13;1.08;;;22.30;99.90;;;;;;4161311;28;20147;-62
2023/07/31 07:43:13;;;;;;;3.67;1.05;;;22.40;99.90;;;;;;4161469;28;20029;-60
2023/07/31 07:45:14;;;;;;;4.30;1.05;;;22.60;99.90;;;;;;4160791;28;20029;-61
2023/07/31 07:47:16;;;;;;;6.35;1.30;;;22.80;99.90;;;;;;4161360;28;20037;-62
2023/07/31 07:49:17;;;;;;;3.03;1.20;;;22.90;99.90;;;;;;4160442;28;20099;-64
2023/07/31 07:51:18;;;;;;;2.30;0.98;;;23.00;99.90;;;;;;4161622;28;20087;-69
2023/07/31 07:53:19;;;;;;;3.17;0.90;;;23.10;99.90;;;;;;4160424;28;20041;-62
2023/07/31 07:55:20;;;;;;;1.40;1.17;;;23.10;99.90;;;;;;4161346;28;20045;-70
2023/07/31 07:57:21;;;;;;;0.80;0.77;;;23.20;99.90;;;;;;4160050;28;20449;-61
2023/07/31 07:59:22;;;;;;;1.95;1.08;;;23.40;99.90;;;;;;4161437;28;20128;-66
2023/07/31 08:01:24;;;;;;;1.20;1.10;;;23.70;99.90;;;;;;4159979;28;20377;-72
2023/07/31 08:03:25;;;;;;;2.67;1.17;;;24.00;99.90;;;;;;4161499;28;20042;-72
2023/07/31 08:05:26;;;;;;;1.15;1.05;;;24.00;99.90;;;;;;4159779;28;20033;-65
2023/07/31 08:07:27;;;;;;;1.23;0.80;;;24.00;99.90;;;;;;4161430;28;20092;-72
2023/07/31 08:09:28;;;;;;;1.67;1.27;;;24.10;99.90;;;;;;4160000;28;20053;-60
2023/07/31 08:11:29;;;;;;;3.80;1.17;;;24.10;99.90;;;;;;4160251;28;20026;-67
2023/07/31 08:13:30;;;;;;;5.82;1.40;;;24.30;99.90;;;;;;4161122;28;20030;-69
2023/07/31 08:15:31;;;;;;;1.95;1.08;;;24.40;99.90;;;;;;4160220;28;20107;-61
2023/07/31 08:17:32;;;;;;;1.50;1.05;;;24.50;99.90;;;;;;4160808;28;20057;-62
2023/07/31 08:19:33;;;;;;;1.40;1.30;;;24.50;99.90;;;;;;4159767;28;20029;-62
2023/07/31 08:21:34;;;;;;;1.92;1.00;;;24.50;99.90;;;;;;4161426;28;20045;-66
2023/07/31 08:23:36;;;;;;;1.45;1.10;;;24.60;99.90;;;;;;4160064;28;20049;-62
2023/07/31 08:25:37;;;;;;;2.30;1.45;;;24.70;99.90;;;;;;4160275;28;20119;-62
2023/07/31 08:27:38;;;;;;;1.90;1.23;;;24.70;99.90;;;;;;4160024;28;20539;-62
2023/07/31 08:29:39;;;;;;;2.83;1.30;;;24.70;99.90;;;;;;4160845;28;20403;-64
2023/07/31 08:31:40;;;;;;;2.17;1.23;;;24.50;99.90;;;;;;4159683;28;20071;-61
2023/07/31 08:33:41;;;;;;;1.55;1.25;;;24.30;99.90;;;;;;4160867;28;20091;-70
2023/07/31 08:35:42;;;;;;;3.22;1.27;;;24.40;99.90;;;;;;4158352;28;20046;-69
2023/07/31 08:37:43;;;;;;;2.20;1.23;;;24.30;99.90;;;;;;4160999;28;20079;-62
2023/07/31 08:39:45;;;;;;;3.80;1.15;;;24.30;99.90;;;;;;4160149;28;20481;-62
2023/07/31 08:41:47;;;;;;;1.35;1.10;;;24.30;99.90;;;;;;4160540;28;20050;-63
2023/07/31 08:43:50;;;;;;;2.33;1.27;;;24.30;99.90;;;;;;4160917;28;20084;-69
2023/07/31 08:45:51;;;;;;;3.10;1.40;;;24.40;99.90;;;;;;4160321;28;20033;-61
2023/07/31 08:47:52;;;;;;;1.00;0.98;;;24.50;99.90;;;;;;4160809;28;20030;-64
2023/07/31 08:49:55;;;;;;;2.65;1.10;;;24.50;99.90;;;;;;4159553;28;20048;-66
2023/07/31 08:51:57;;;;;;;2.92;1.40;;;24.70;99.90;;;;;;4160481;28;20037;-69
2023/07/31 08:53:59;;;;;;;2.22;1.20;;;25.00;99.90;;;;;;4159741;28;20029;-68
2023/07/31 08:56:00;;;;;;;1.45;1.33;;;25.20;99.90;;;;;;4160545;28;20424;-61
2023/07/31 08:58:04;;;;;;;3.95;1.35;;;25.40;99.90;;;;;;4159199;28;20091;-61
2023/07/31 09:00:07;;;;;;;1.75;1.35;;;25.50;99.90;;;;;;4160459;28;20160;-63
2023/07/31 09:02:08;;;;;;;3.20;1.20;;;25.40;99.90;;;;;;4159808;28;20106;-61
2023/07/31 09:04:12;;;;;;;1.75;1.20;;;25.30;99.90;;;;;;4160651;28;20417;-61
2023/07/31 09:06:15;;;;;;;1.42;1.33;;;25.60;99.90;;;;;;4159783;28;20033;-61
2023/07/31 09:08:21;;;;;;;1.50;1.08;;;26.00;99.90;;;;;;4161043;28;20187;-62
2023/07/31 09:10:22;;;;;;;1.45;1.08;;;26.20;99.90;;;;;;4159514;28;20356;-62
2023/07/31 09:12:25;;;;;;;1.80;1.27;;;26.30;99.90;;;;;;4160527;28;20143;-66
2023/07/31 09:14:27;;;;;;;1.90;1.08;;;26.40;99.90;;;;;;4159795;28;20454;-62
2023/07/31 09:16:30;;;;;;;1.20;1.10;;;26.40;99.90;;;;;;4160261;28;20048;-63
2023/07/31 09:18:31;;;;;;;2.15;1.30;;;26.30;99.90;;;;;;4158390;28;20136;-60
2023/07/31 09:20:33;;;;;;;0.98;0.88;;;26.20;99.90;;;;;;4160147;28;20489;-65
2023/07/31 09:22:35;;;;;;;2.05;1.02;;;26.30;99.90;;;;;;4160180;28;20045;-69
2023/07/31 09:24:36;;;;;;;0.70;0.63;;;26.10;99.90;;;;;;4159622;28;20445;-66
2023/07/31 09:26:37;;;;;;;12.07;2.55;;;25.80;99.90;;;;;;4160220;28;20041;-69
2023/07/31 09:28:39;;;;;;;10.30;2.70;;;25.70;99.90;;;;;;4159345;28;20449;-60
2023/07/31 09:30:58;;;;;;;5.90;1.40;;;25.40;99.90;;;;;;4160221;28;20879;-67
2023/07/31 09:33:05;;;;;;;3.58;1.20;;;25.00;99.90;;;;;;4159096;28;20115;-61
2023/07/31 09:35:27;;;;;;;2.35;1.13;;;24.80;99.90;;;;;;4160427;28;20033;-61
2023/07/31 09:37:29;;;;;;;6.43;1.30;;;24.70;99.90;;;;;;4162280;28;20034;-62
2023/07/31 09:39:31;;;;;;;1.60;0.95;;;24.80;99.90;;;;;;4161798;28;20076;-61
2023/07/31 09:41:37;;;;;;;1.05;0.95;;;25.10;99.90;;;;;;4161981;28;20034;-62
2023/07/31 09:43:38;;;;;;;44.70;7.68;;;25.20;99.90;;;;;;4163472;28;20049;-68
2023/07/31 09:45:41;;;;;;;19.40;4.53;;;25.40;99.90;;;;;;4162426;28;20068;-61
2023/07/31 09:47:48;;;;;;;26.20;3.47;;;25.20;99.90;;;;;;4163306;28;20425;-61
2023/07/31 09:49:49;;;;;;;10.52;2.50;;;25.00;99.90;;;;;;4162102;28;20088;-70
2023/07/31 09:51:50;;;;;;;21.23;3.13;;;24.80;99.90;;;;;;4163421;28;20121;-67
2023/07/31 09:53:51;;;;;;;13.32;2.40;;;24.70;99.90;;;;;;4162067;28;20433;-65
2023/07/31 09:55:53;;;;;;;4.32;1.50;;;24.70;99.90;;;;;;4163080;28;20049;-66
2023/07/31 09:57:56;;;;;;;11.00;2.20;;;24.80;99.90;;;;;;4161573;28;20450;-60
2023/07/31 09:59:58;;;;;;;5.03;1.73;;;24.80;99.90;;;;;;4163028;28;20037;-65
2023/07/31 10:01:59;;;;;;;2.03;1.25;;;24.80;99.90;;;;;;4161817;28;20439;-68
2023/07/31 10:04:01;;;;;;;1.95;1.00;;;24.90;99.90;;;;;;4162508;28;20037;-61
2023/07/31 10:06:04;;;;;;;1.10;1.00;;;24.80;99.90;;;;;;4162035;28;20037;-61
2023/07/31 10:08:08;;;;;;;2.78;1.20;;;24.80;99.90;;;;;;4162285;28;20079;-60
2023/07/31 10:10:09;;;;;;;1.00;0.90;;;24.90;99.90;;;;;;4162201;28;20486;-68
2023/07/31 10:12:14;;;;;;;1.95;1.00;;;25.10;99.90;;;;;;4161519;28;20052;-62
2023/07/31 10:14:16;;;;;;;13.98;2.80;;;25.30;99.90;;;;;;4162691;28;20580;-69
2023/07/31 10:16:18;;;;;;;1.10;1.02;;;25.30;99.90;;;;;;4162043;28;20045;-72
2023/07/31 10:18:20;;;;;;;8.82;2.03;;;25.30;99.90;;;;;;4162639;28;20092;-70
2023/07/31 10:20:21;;;;;;;8.25;1.70;;;25.30;99.90;;;;;;4161836;28;20088;-71
2023/07/31 10:22:23;;;;;;;4.32;1.42;;;25.50;99.90;;;;;;4162899;28;20477;-62
2023/07/31 10:24:25;;;;;;;9.32;1.60;;;25.50;99.90;;;;;;4161541;28;20474;-70
2023/07/31 10:26:26;;;;;;;7.68;1.40;;;25.80;99.90;;;;;;4162809;28;20878;-61
2023/07/31 10:28:28;;;;;;;6.85;1.10;;;25.90;99.90;;;;;;4161302;28;20107;-67
2023/07/31 10:30:32;;;;;;;2.28;1.38;;;26.10;99.90;;;;;;4162479;28;20103;-62
2023/07/31 10:32:34;;;;;;;1.13;0.90;;;26.40;99.90;;;;;;4161316;28;20068;-62
2023/07/31 10:34:36;;;;;;;6.57;1.08;;;26.50;99.90;;;;;;4162296;28;20098;-71